Time;durP1;ratioP1;P1;durP2;ratioP2;P2;SDS_P1;SDS_P2;PMS_P1;PMS_P2;Temp;Humidity;BMP_temperature;BMP_pressure;BME280_temperature;BME280_humidity;BME280_pressure;Samples;Min_cycle;Max_cycle;Signal;HPM_P1;HPM_P2
2023/08/24 00:00:40;;;;;;;30.43;29.03;;;26.20;81.70;;;;;;5020879;28;20513;-50
2023/08/24 00:03:08;;;;;;;30.80;29.30;;;26.20;81.80;;;;;;5021165;28;20442;-50
2023/08/24 00:05:36;;;;;;;31.00;29.73;;;26.20;81.90;;;;;;5021370;28;20450;-51
2023/08/24 00:08:04;;;;;;;30.50;29.20;;;26.20;82.00;;;;;;5026392;28;20449;-51
2023/08/24 00:10:31;;;;;;;32.30;30.77;;;26.20;82.30;;;;;;5040330;28;20499;-51
2023/08/24 00:12:58;;;;;;;29.97;28.77;;;26.10;82.40;;;;;;5039632;28;20465;-49
2023/08/24 00:15:25;;;;;;;31.10;29.70;;;26.10;82.40;;;;;;5040160;28;20473;-50
2023/08/24 00:17:53;;;;;;;31.20;29.90;;;26.10;82.60;;;;;;5036867;28;20447;-49
2023/08/24 00:20:20;;;;;;;32.97;31.47;;;26.10;82.80;;;;;;5020202;28;20482;-49
2023/08/24 00:22:48;;;;;;;31.87;30.47;;;26.10;82.90;;;;;;5020823;28;20493;-49
2023/08/24 00:25:15;;;;;;;31.87;30.47;;;26.10;83.00;;;;;;5020638;28;20449;-50
2023/08/24 00:27:42;;;;;;;33.57;32.07;;;26.10;82.90;;;;;;5022743;28;20445;-50
2023/08/24 00:30:09;;;;;;;33.20;31.73;;;26.10;83.00;;;;;;5040218;28;20866;-48
2023/08/24 00:32:37;;;;;;;32.53;30.93;;;26.10;82.90;;;;;;5027580;28;20465;-51
2023/08/24 00:35:07;;;;;;;32.23;30.70;;;26.10;83.00;;;;;;5020855;28;20446;-49
2023/08/24 00:37:34;;;;;;;32.47;31.03;;;26.10;83.00;;;;;;5021685;28;20446;-51
2023/08/24 00:40:03;;;;;;;32.10;30.37;;;26.10;83.20;;;;;;5039913;28;20523;-50
2023/08/24 00:42:31;;;;;;;31.50;30.00;;;26.00;83.20;;;;;;5039705;28;20496;-50
2023/08/24 00:44:58;;;;;;;32.53;31.00;;;26.00;83.30;;;;;;5040200;28;20521;-50
2023/08/24 00:47:25;;;;;;;32.63;30.97;;;26.00;83.50;;;;;;5040766;28;20796;-51
2023/08/24 00:49:52;;;;;;;35.07;33.50;;;26.00;83.60;;;;;;5021635;28;20442;-50
2023/08/24 00:52:21;;;;;;;32.57;30.93;;;26.00;83.80;;;;;;5019791;28;20466;-50
2023/08/24 00:54:48;;;;;;;31.00;29.70;;;26.00;83.80;;;;;;5020313;28;20450;-50
2023/08/24 00:57:15;;;;;;;31.80;30.37;;;26.00;83.90;;;;;;5020750;28;20549;-49
2023/08/24 00:59:42;;;;;;;35.27;33.60;;;26.00;84.10;;;;;;5038229;28;20512;-50
2023/08/24 01:02:10;;;;;;;31.80;30.33;;;26.00;84.10;;;;;;5040517;28;20472;-51
2023/08/24 01:04:37;;;;;;;32.30;30.87;;;26.00;84.30;;;;;;5040070;28;20448;-50
2023/08/24 01:07:04;;;;;;;34.20;32.70;;;25.90;84.40;;;;;;5043509;28;20480;-49
2023/08/24 01:09:33;;;;;;;32.93;31.07;;;25.90;84.60;;;;;;5040621;28;20476;-51
2023/08/24 01:12:06;;;;;;;32.33;30.90;;;25.90;84.70;;;;;;5023778;28;20543;-50
2023/08/24 01:14:41;;;;;;;33.97;32.00;;;25.90;84.80;;;;;;5025838;28;20938;-52
2023/08/24 01:17:11;;;;;;;31.97;30.47;;;25.90;84.90;;;;;;5024464;28;20448;-53
2023/08/24 01:19:42;;;;;;;34.00;32.40;;;25.90;85.10;;;;;;5042208;28;20538;-49
2023/08/24 01:22:21;;;;;;;32.87;31.27;;;25.90;85.10;;;;;;5044986;28;20841;-48
2023/08/24 01:25:07;;;;;;;35.03;33.43;;;25.90;85.10;;;;;;5043854;28;20809;-49
2023/08/24 01:27:37;;;;;;;32.97;31.37;;;25.90;85.30;;;;;;5044342;28;20444;-51
2023/08/24 01:30:05;;;;;;;33.00;31.30;;;25.90;85.50;;;;;;5021050;28;20448;-52
2023/08/24 01:32:32;;;;;;;33.97;32.30;;;25.90;85.50;;;;;;5024681;28;20469;-49
2023/08/24 01:35:00;;;;;;;33.27;31.77;;;25.90;85.60;;;;;;5023828;28;20533;-49
2023/08/24 01:37:27;;;;;;;33.13;31.53;;;25.90;85.70;;;;;;5024313;28;20518;-50
2023/08/24 01:40:03;;;;;;;34.47;32.87;;;25.90;85.90;;;;;;5025015;28;20481;-50
2023/08/24 01:42:34;;;;;;;32.57;31.00;;;25.90;86.20;;;;;;5023472;28;20465;-52
2023/08/24 01:45:07;;;;;;;32.47;31.00;;;25.90;86.40;;;;;;5023625;28;20507;-51
2023/08/24 01:47:36;;;;;;;32.90;31.40;;;25.80;86.40;;;;;;5024070;28;20446;-51
2023/08/24 01:50:04;;;;;;;31.13;29.83;;;25.80;86.50;;;;;;5027282;28;20788;-52
2023/08/24 01:52:33;;;;;;;34.83;33.10;;;25.80;86.50;;;;;;5023870;28;20497;-49
2023/08/24 01:55:00;;;;;;;32.40;30.90;;;25.80;86.70;;;;;;5023729;28;20816;-52
2023/08/24 01:57:27;;;;;;;33.57;31.90;;;25.80;86.90;;;;;;5024160;28;20442;-50
2023/08/24 01:59:54;;;;;;;32.67;31.20;;;25.80;87.10;;;;;;5024322;28;20488;-51
2023/08/24 02:02:24;;;;;;;33.83;32.13;;;25.80;87.20;;;;;;5023467;28;20497;-48
2023/08/24 02:04:51;;;;;;;33.20;31.70;;;25.80;87.30;;;;;;5023401;28;20446;-50
2023/08/24 02:07:18;;;;;;;32.93;31.43;;;25.80;87.20;;;;;;5023477;28;20552;-49
2023/08/24 02:09:45;;;;;;;33.53;32.03;;;25.80;87.30;;;;;;5039638;28;20484;-53
2023/08/24 02:12:12;;;;;;;32.13;30.67;;;25.80;87.50;;;;;;5043753;28;20465;-50
2023/08/24 02:14:39;;;;;;;45.43;43.53;;;25.80;87.50;;;;;;5043254;28;20452;-48
2023/08/24 02:17:06;;;;;;;33.77;32.27;;;25.80;87.60;;;;;;5042662;28;20448;-50
2023/08/24 02:19:34;;;;;;;31.90;30.50;;;25.80;87.70;;;;;;5027834;28;20457;-51
2023/08/24 02:22:01;;;;;;;34.23;32.63;;;25.80;87.70;;;;;;5023225;28;20869;-49
2023/08/24 02:24:28;;;;;;;34.80;33.30;;;25.80;87.80;;;;;;5023503;28;20442;-49
2023/08/24 02:26:55;;;;;;;35.63;33.97;;;25.70;87.90;;;;;;5023473;28;20484;-52
2023/08/24 02:29:22;;;;;;;32.70;31.20;;;25.70;87.80;;;;;;5036852;28;20449;-53
2023/08/24 02:31:50;;;;;;;33.47;31.97;;;25.70;88.00;;;;;;5043608;28;20625;-51
2023/08/24 02:34:17;;;;;;;31.30;30.00;;;25.70;87.90;;;;;;5043623;28;20477;-53
2023/08/24 02:36:45;;;;;;;33.50;31.90;;;25.70;88.20;;;;;;5043111;28;20442;-51
2023/08/24 02:39:13;;;;;;;32.27;30.97;;;25.70;88.40;;;;;;5031075;28;20450;-51
2023/08/24 02:41:40;;;;;;;32.23;30.87;;;25.70;88.40;;;;;;5022729;28;20489;-49
2023/08/24 02:44:07;;;;;;;32.20;30.60;;;25.70;88.90;;;;;;5021813;28;20446;-51
2023/08/24 02:46:33;;;;;;;32.50;31.10;;;25.70;88.40;;;;;;5022392;28;20458;-49
2023/08/24 02:49:00;;;;;;;31.57;30.20;;;25.70;88.30;;;;;;5022855;28;20469;-51
2023/08/24 02:51:27;;;;;;;32.77;31.37;;;25.70;88.40;;;;;;5021859;28;20497;-49
2023/08/24 02:53:55;;;;;;;32.10;30.70;;;25.70;88.50;;;;;;5021631;28;20807;-51
2023/08/24 02:56:22;;;;;;;31.57;30.17;;;25.70;88.60;;;;;;5022896;28;20446;-51
2023/08/24 02:58:49;;;;;;;34.57;32.77;;;25.70;88.60;;;;;;5022970;28;20457;-53
2023/08/24 03:01:16;;;;;;;32.07;30.57;;;25.70;88.90;;;;;;5022203;28;21015;-53
2023/08/24 03:03:43;;;;;;;32.77;31.00;;;25.70;89.00;;;;;;5022081;28;20818;-51
2023/08/24 03:06:10;;;;;;;32.30;30.80;;;25.70;89.30;;;;;;5021942;28;20850;-51
2023/08/24 03:08:37;;;;;;;33.70;32.10;;;25.70;89.40;;;;;;5021869;28;20525;-49
2023/08/24 03:11:06;;;;;;;31.60;30.20;;;25.60;89.30;;;;;;5022733;28;20474;-48
2023/08/24 03:13:34;;;;;;;32.97;31.57;;;25.60;89.40;;;;;;5022832;28;20504;-49
2023/08/24 03:16:05;;;;;;;34.23;32.70;;;25.70;89.40;;;;;;5022674;28;20457;-50
2023/08/24 03:18:32;;;;;;;33.93;32.03;;;25.70;89.60;;;;;;5029768;28;20442;-49
2023/08/24 03:21:00;;;;;;;36.47;34.57;;;25.60;89.50;;;;;;5042340;28;20628;-52
2023/08/24 03:23:27;;;;;;;33.90;32.40;;;25.60;89.50;;;;;;5042004;28;20449;-49
2023/08/24 03:25:54;;;;;;;32.87;31.37;;;25.60;89.60;;;;;;5042135;28;20471;-52
2023/08/24 03:28:22;;;;;;;32.70;31.20;;;25.60;89.50;;;;;;5041847;28;20806;-50
2023/08/24 03:30:49;;;;;;;33.30;31.90;;;25.60;89.50;;;;;;5042064;28;20459;-54
2023/08/24 03:33:16;;;;;;;32.40;31.00;;;25.60;89.40;;;;;;5041797;28;20473;-54
2023/08/24 03:35:43;;;;;;;32.40;30.90;;;25.60;89.40;;;;;;5041494;28;20464;-48
2023/08/24 03:38:10;;;;;;;32.60;31.20;;;25.60;89.40;;;;;;5033212;28;20864;-54
2023/08/24 03:40:38;;;;;;;33.40;31.80;;;25.60;89.40;;;;;;5021926;28;20485;-52
2023/08/24 03:43:05;;;;;;;32.57;31.17;;;25.60;89.50;;;;;;5021575;28;20456;-48
2023/08/24 03:45:33;;;;;;;32.73;31.23;;;25.60;89.40;;;;;;5022446;28;20454;-53
2023/08/24 03:48:00;;;;;;;32.70;31.40;;;25.50;89.10;;;;;;5033741;28;20449;-49
2023/08/24 03:50:27;;;;;;;32.40;31.03;;;25.50;89.00;;;;;;5041513;28;20433;-50
2023/08/24 03:52:54;;;;;;;32.70;31.20;;;25.50;89.00;;;;;;5040156;28;20530;-53
2023/08/24 03:55:22;;;;;;;32.83;31.30;;;25.50;89.10;;;;;;5037348;28;20446;-52
2023/08/24 03:57:49;;;;;;;33.57;31.77;;;25.50;89.30;;;;;;5020943;28;20540;-51
2023/08/24 04:00:17;;;;;;;34.93;33.43;;;25.50;89.60;;;;;;5021906;28;20818;-48
2023/08/24 04:02:46;;;;;;;37.90;36.00;;;25.50;89.70;;;;;;5021929;28;20466;-53
2023/08/24 04:05:12;;;;;;;35.87;34.37;;;25.50;90.00;;;;;;5022048;28;20444;-51
2023/08/24 04:07:41;;;;;;;35.93;34.43;;;25.50;90.00;;;;;;5022574;28;20446;-54
2023/08/24 04:10:09;;;;;;;35.20;33.70;;;25.50;90.10;;;;;;5021482;28;20891;-52
2023/08/24 04:12:36;;;;;;;34.40;33.00;;;25.50;90.20;;;;;;5021928;28;20469;-50
2023/08/24 04:15:04;;;;;;;35.93;34.23;;;25.50;90.20;;;;;;5021522;28;20439;-50
2023/08/24 04:17:31;;;;;;;38.03;36.30;;;25.50;90.30;;;;;;5001687;28;21007;-49
2023/08/24 04:19:59;;;;;;;37.00;35.40;;;25.50;90.40;;;;;;5001359;28;20815;-52
2023/08/24 04:22:26;;;;;;;34.77;33.37;;;25.50;90.40;;;;;;4997674;28;20507;-53
2023/08/24 04:24:53;;;;;;;36.93;34.93;;;25.50;90.60;;;;;;4994314;28;20513;-53
2023/08/24 04:27:21;;;;;;;37.13;34.63;;;25.50;91.20;;;;;;5018606;28;20478;-51
2023/08/24 04:29:49;;;;;;;38.60;36.00;;;25.50;92.70;;;;;;5033362;28;20936;-49
2023/08/24 04:32:16;;;;;;;37.27;34.93;;;25.50;94.50;;;;;;5033257;28;20461;-49
2023/08/24 04:34:42;;;;;;;39.60;36.17;;;25.50;96.40;;;;;;5014472;28;20450;-48
2023/08/24 04:37:11;;;;;;;39.20;36.90;;;25.50;97.60;;;;;;5013436;28;20473;-48
2023/08/24 04:39:38;;;;;;;37.30;34.70;;;25.50;98.40;;;;;;5013085;28;20478;-49
2023/08/24 04:42:05;;;;;;;36.30;33.40;;;25.50;98.00;;;;;;5011619;28;20496;-49
2023/08/24 04:44:32;;;;;;;38.90;36.60;;;25.50;98.30;;;;;;5011764;28;20445;-48
2023/08/24 04:47:00;;;;;;;35.80;33.57;;;25.50;97.90;;;;;;5012124;28;20515;-48
2023/08/24 04:49:28;;;;;;;37.20;34.47;;;25.50;97.70;;;;;;5012017;28;20446;-48
2023/08/24 04:51:55;;;;;;;36.53;34.23;;;25.50;97.40;;;;;;5011958;28;20524;-51
2023/08/24 04:54:23;;;;;;;34.13;32.20;;;25.50;97.20;;;;;;5012014;28;20481;-48
2023/08/24 04:56:50;;;;;;;36.57;34.23;;;25.50;97.10;;;;;;5011968;28;20960;-48
2023/08/24 04:59:17;;;;;;;33.80;32.03;;;25.50;96.90;;;;;;5011776;28;20481;-53
2023/08/24 05:01:44;;;;;;;33.20;31.30;;;25.50;96.60;;;;;;5011775;28;20496;-49
2023/08/24 05:04:11;;;;;;;35.40;33.37;;;25.50;96.50;;;;;;5011712;28;20474;-49
2023/08/24 05:06:37;;;;;;;34.13;32.33;;;25.50;96.50;;;;;;5011702;28;20546;-49
2023/08/24 05:09:04;;;;;;;32.50;31.00;;;25.50;96.40;;;;;;5012004;28;20477;-48
2023/08/24 05:11:33;;;;;;;32.87;31.47;;;25.50;96.20;;;;;;5011691;28;20494;-48
2023/08/24 05:13:59;;;;;;;34.67;32.97;;;25.50;96.00;;;;;;5011597;28;20470;-50
2023/08/24 05:16:27;;;;;;;35.80;34.00;;;25.50;95.90;;;;;;5011584;28;20469;-51
2023/08/24 05:18:54;;;;;;;35.67;33.70;;;25.60;95.90;;;;;;5011673;28;20446;-53
2023/08/24 05:21:21;;;;;;;33.30;31.87;;;25.50;95.80;;;;;;5011241;28;20569;-52
2023/08/24 05:23:48;;;;;;;35.10;33.30;;;25.50;95.70;;;;;;5011402;28;20557;-48
2023/08/24 05:26:22;;;;;;;36.77;35.07;;;25.50;95.60;;;;;;5011698;28;20446;-49
2023/08/24 05:28:50;;;;;;;36.60;34.93;;;25.60;95.60;;;;;;5011522;28;20453;-48
2023/08/24 05:31:17;;;;;;;36.60;34.80;;;25.50;95.50;;;;;;5011521;28;20845;-48
2023/08/24 05:33:44;;;;;;;37.10;35.33;;;25.50;95.40;;;;;;5011365;28;20926;-48
2023/08/24 05:36:12;;;;;;;35.37;33.77;;;25.50;95.40;;;;;;5011496;28;20478;-49
2023/08/24 05:38:44;;;;;;;35.97;34.17;;;25.50;95.40;;;;;;5011316;28;20516;-49
2023/08/24 05:41:11;;;;;;;38.33;36.20;;;25.50;95.30;;;;;;5011472;28;20489;-48
2023/08/24 05:43:38;;;;;;;36.97;35.30;;;25.50;95.20;;;;;;5011294;28;20450;-51
2023/08/24 05:46:06;;;;;;;37.07;35.17;;;25.50;95.20;;;;;;5011355;28;20474;-49
2023/08/24 05:48:33;;;;;;;35.70;34.20;;;25.50;95.10;;;;;;5011184;28;20532;-51
2023/08/24 05:51:00;;;;;;;35.60;34.07;;;25.50;95.10;;;;;;5011141;28;20490;-50
2023/08/24 05:53:27;;;;;;;33.90;32.50;;;25.50;95.10;;;;;;5014266;28;20482;-50
2023/08/24 05:55:59;;;;;;;36.13;34.63;;;25.50;95.10;;;;;;5014983;28;20477;-48
2023/08/24 05:58:25;;;;;;;35.13;33.53;;;25.50;95.10;;;;;;5015110;28;20438;-49
2023/08/24 06:00:58;;;;;;;37.40;35.60;;;25.50;95.10;;;;;;5014806;28;20517;-51
2023/08/24 06:03:26;;;;;;;35.47;33.70;;;25.50;95.10;;;;;;5014658;28;20614;-48
2023/08/24 06:05:53;;;;;;;36.67;35.07;;;25.50;95.10;;;;;;5014719;28;20446;-49
2023/08/24 06:08:20;;;;;;;38.60;36.80;;;25.50;95.10;;;;;;5014664;28;20481;-49
2023/08/24 06:10:47;;;;;;;37.00;35.30;;;25.50;95.00;;;;;;5014695;28;20450;-48
2023/08/24 06:13:14;;;;;;;37.00;35.50;;;25.50;95.00;;;;;;5014425;28;20488;-48
2023/08/24 06:15:42;;;;;;;34.67;33.07;;;25.50;95.00;;;;;;5014670;28;20456;-50
2023/08/24 06:18:09;;;;;;;36.60;35.10;;;25.50;95.00;;;;;;5014509;28;20477;-48
2023/08/24 06:20:37;;;;;;;35.60;34.10;;;25.50;95.00;;;;;;5014229;28;20481;-49
2023/08/24 06:23:04;;;;;;;35.87;34.20;;;25.50;94.90;;;;;;5014512;28;20532;-52
2023/08/24 06:25:31;;;;;;;36.57;35.00;;;25.50;94.90;;;;;;5014268;28;20925;-52
2023/08/24 06:27:59;;;;;;;36.43;34.83;;;25.50;94.90;;;;;;5014171;28;20946;-48
2023/08/24 06:30:26;;;;;;;35.60;34.10;;;25.50;94.90;;;;;;5014186;28;20477;-53
2023/08/24 06:32:53;;;;;;;35.83;34.23;;;25.50;94.90;;;;;;5013839;28;20494;-50
2023/08/24 06:35:20;;;;;;;36.27;34.67;;;25.50;94.90;;;;;;5014125;28;20484;-52
2023/08/24 06:37:48;;;;;;;35.97;34.40;;;25.50;94.90;;;;;;5014022;28;20945;-50
2023/08/24 06:40:17;;;;;;;35.40;33.80;;;25.50;95.00;;;;;;5014059;28;20493;-49
2023/08/24 06:42:44;;;;;;;34.50;33.00;;;25.50;95.00;;;;;;5013869;28;20485;-49
2023/08/24 06:45:11;;;;;;;36.83;35.13;;;25.50;95.00;;;;;;5013888;28;20485;-48
2023/08/24 06:47:38;;;;;;;36.37;34.47;;;25.50;95.00;;;;;;5013813;28;20484;-51
2023/08/24 06:50:06;;;;;;;37.77;36.10;;;25.50;95.00;;;;;;5013853;28;20810;-49
2023/08/24 06:52:33;;;;;;;35.40;33.90;;;25.50;95.00;;;;;;5013684;28;20501;-52
2023/08/24 06:55:02;;;;;;;38.43;36.73;;;25.50;95.10;;;;;;5013620;28;20480;-48
2023/08/24 06:57:29;;;;;;;37.73;36.13;;;25.50;95.10;;;;;;5013820;28;20803;-48
2023/08/24 06:59:56;;;;;;;36.40;34.87;;;25.50;95.00;;;;;;5013718;28;20474;-51
2023/08/24 07:02:23;;;;;;;37.67;35.97;;;25.50;95.10;;;;;;5013541;28;20528;-52
2023/08/24 07:04:50;;;;;;;39.07;37.37;;;25.50;95.40;;;;;;5012609;28;20444;-52
2023/08/24 07:07:17;;;;;;;36.80;35.07;;;25.50;95.20;;;;;;5013541;28;20482;-52
2023/08/24 07:09:44;;;;;;;36.20;34.70;;;25.50;95.20;;;;;;5013614;28;20477;-49
2023/08/24 07:12:12;;;;;;;36.97;35.20;;;25.50;95.30;;;;;;5013498;28;20493;-48
2023/08/24 07:14:39;;;;;;;35.90;34.30;;;25.50;95.30;;;;;;5013146;28;20488;-51
2023/08/24 07:17:07;;;;;;;35.43;33.93;;;25.50;95.30;;;;;;5013441;28;20485;-53
2023/08/24 07:19:34;;;;;;;36.13;34.53;;;25.60;95.40;;;;;;5013314;28;20478;-52
2023/08/24 07:22:01;;;;;;;37.67;35.97;;;25.50;95.30;;;;;;5012986;28;20603;-49
2023/08/24 07:24:29;;;;;;;38.87;37.27;;;25.60;95.40;;;;;;5012880;28;20448;-49
2023/08/24 07:26:56;;;;;;;37.93;36.40;;;25.60;95.40;;;;;;5013221;28;20457;-48
2023/08/24 07:29:25;;;;;;;39.77;37.93;;;25.60;95.50;;;;;;5012902;28;20469;-51
2023/08/24 07:31:51;;;;;;;37.27;35.47;;;25.50;95.50;;;;;;5013004;28;20490;-50
2023/08/24 07:34:18;;;;;;;36.77;35.00;;;25.50;95.50;;;;;;5012658;28;20875;-50
2023/08/24 07:36:47;;;;;;;36.30;34.80;;;25.60;95.60;;;;;;5012846;28;20442;-48
2023/08/24 07:39:15;;;;;;;35.43;34.03;;;25.60;95.60;;;;;;5012767;28;20493;-50
2023/08/24 07:41:42;;;;;;;35.93;34.43;;;25.60;95.60;;;;;;5012599;28;20577;-49
2023/08/24 07:44:09;;;;;;;38.17;36.47;;;25.60;95.70;;;;;;5012564;28;20450;-51
2023/08/24 07:46:37;;;;;;;38.83;37.13;;;25.60;95.60;;;;;;5012703;28;20489;-50
2023/08/24 07:49:04;;;;;;;36.00;34.40;;;25.60;95.70;;;;;;5012684;28;20873;-51
2023/08/24 07:51:31;;;;;;;35.07;33.67;;;25.60;95.80;;;;;;5012538;28;20505;-50
2023/08/24 07:53:57;;;;;;;39.13;37.03;;;25.60;95.80;;;;;;5012671;28;20442;-48
2023/08/24 07:56:24;;;;;;;37.93;36.33;;;25.60;95.80;;;;;;5012597;28;20484;-53
2023/08/24 07:58:51;;;;;;;36.70;35.10;;;25.60;95.90;;;;;;5012537;28;20791;-52
2023/08/24 08:01:18;;;;;;;39.47;37.77;;;25.60;95.90;;;;;;5012351;28;20494;-49
2023/08/24 08:03:46;;;;;;;36.10;34.30;;;25.60;95.90;;;;;;5012192;28;20450;-49
2023/08/24 08:06:14;;;;;;;38.50;36.80;;;25.60;95.90;;;;;;5012471;28;20898;-53
2023/08/24 08:08:41;;;;;;;39.00;37.20;;;25.60;95.90;;;;;;5012412;28;20446;-49
2023/08/24 08:11:08;;;;;;;38.00;36.40;;;25.60;96.00;;;;;;5012340;28;20509;-50
2023/08/24 08:13:35;;;;;;;37.40;35.83;;;25.60;95.90;;;;;;5012053;28;20482;-51
2023/08/24 08:16:03;;;;;;;38.43;36.63;;;25.60;95.90;;;;;;5011934;28;20445;-49
2023/08/24 08:18:30;;;;;;;37.53;36.00;;;25.60;95.90;;;;;;5012124;28;20442;-53
2023/08/24 08:20:58;;;;;;;35.73;34.03;;;25.70;96.00;;;;;;5012077;28;20441;-49
2023/08/24 08:23:25;;;;;;;36.63;34.73;;;25.60;96.00;;;;;;5012043;28;21092;-50
2023/08/24 08:25:53;;;;;;;36.07;34.47;;;25.70;96.00;;;;;;5012043;28;20485;-51
2023/08/24 08:28:20;;;;;;;35.87;34.27;;;25.70;95.90;;;;;;5011991;28;20454;-50
2023/08/24 08:30:48;;;;;;;36.33;34.73;;;25.70;96.00;;;;;;5011865;28;20496;-50
2023/08/24 08:33:15;;;;;;;36.17;34.57;;;25.70;96.00;;;;;;5011800;28;20507;-54
2023/08/24 08:35:42;;;;;;;33.47;31.87;;;25.70;96.10;;;;;;5011976;28;20445;-49
2023/08/24 08:38:11;;;;;;;33.50;32.10;;;25.70;96.10;;;;;;5012164;28;20449;-52
2023/08/24 08:40:39;;;;;;;33.27;31.80;;;25.70;96.10;;;;;;5011693;28;20478;-51
2023/08/24 08:43:06;;;;;;;35.23;33.60;;;25.70;96.10;;;;;;5011468;28;20490;-52
2023/08/24 08:45:33;;;;;;;33.33;31.73;;;25.70;96.00;;;;;;5011987;28;20485;-51
2023/08/24 08:48:01;;;;;;;35.70;34.20;;;25.70;96.10;;;;;;5011779;28;20442;-51
2023/08/24 08:50:28;;;;;;;33.67;32.03;;;25.70;96.00;;;;;;5011779;28;20450;-51
2023/08/24 08:52:55;;;;;;;34.67;33.07;;;25.70;96.10;;;;;;5011828;28;20521;-55
2023/08/24 08:55:23;;;;;;;34.63;33.00;;;25.70;96.10;;;;;;5017183;28;20482;-52
2023/08/24 08:57:52;;;;;;;36.03;34.13;;;25.70;96.10;;;;;;5017972;28;20474;-53
2023/08/24 09:00:19;;;;;;;34.20;32.37;;;25.70;96.00;;;;;;5018054;28;20446;-55
2023/08/24 09:02:49;;;;;;;35.40;33.90;;;25.70;96.10;;;;;;5017064;28;20921;-55
2023/08/24 09:05:16;;;;;;;33.37;31.80;;;25.70;96.00;;;;;;5016993;28;20528;-54
2023/08/24 09:07:43;;;;;;;33.47;31.97;;;25.70;96.00;;;;;;5018818;28;20441;-53
2023/08/24 09:10:10;;;;;;;33.53;32.03;;;25.70;96.00;;;;;;5018317;28;20765;-52
2023/08/24 09:12:38;;;;;;;33.40;31.90;;;25.70;95.90;;;;;;5017907;28;20462;-53
2023/08/24 09:15:07;;;;;;;34.47;32.77;;;25.80;95.90;;;;;;5017642;28;20507;-54
2023/08/24 09:17:34;;;;;;;33.23;31.73;;;25.80;95.90;;;;;;5018843;28;20525;-54
2023/08/24 09:20:08;;;;;;;33.57;31.60;;;25.80;95.90;;;;;;5018580;28;20472;-55
2023/08/24 09:22:36;;;;;;;35.90;34.30;;;25.80;95.90;;;;;;5017952;28;20490;-55
2023/08/24 09:25:04;;;;;;;35.03;33.43;;;25.80;95.90;;;;;;5018444;28;20526;-55
2023/08/24 09:27:32;;;;;;;32.53;31.07;;;25.80;95.90;;;;;;5020310;28;20519;-56
2023/08/24 09:30:00;;;;;;;33.77;32.27;;;25.80;95.90;;;;;;5021678;28;20446;-50
2023/08/24 09:32:29;;;;;;;33.73;32.23;;;25.80;95.90;;;;;;5021145;28;20493;-55
2023/08/24 09:34:56;;;;;;;36.77;35.23;;;25.80;95.90;;;;;;5021786;28;20942;-55
2023/08/24 09:37:23;;;;;;;34.50;32.97;;;25.80;95.90;;;;;;5022408;28;20504;-54
2023/08/24 09:39:50;;;;;;;35.80;34.30;;;25.80;95.90;;;;;;5022961;28;20476;-56
2023/08/24 09:42:26;;;;;;;36.13;34.53;;;25.80;95.90;;;;;;5021825;28;20562;-51
2023/08/24 09:44:53;;;;;;;37.20;35.53;;;25.80;95.90;;;;;;5022389;28;20473;-53
2023/08/24 09:47:21;;;;;;;33.87;32.47;;;25.80;95.90;;;;;;5021637;28;20477;-55
2023/08/24 09:49:49;;;;;;;33.83;32.33;;;25.80;95.90;;;;;;5021471;28;20478;-55
2023/08/24 09:52:17;;;;;;;34.90;33.30;;;25.80;95.90;;;;;;5022441;28;20458;-55
2023/08/24 09:54:45;;;;;;;34.53;33.10;;;25.80;95.90;;;;;;5021905;28;20481;-54
2023/08/24 09:57:12;;;;;;;34.20;32.70;;;25.90;96.00;;;;;;5021253;28;20482;-55
2023/08/24 09:59:42;;;;;;;35.07;33.63;;;25.80;95.80;;;;;;5021050;28;20449;-54
2023/08/24 10:02:18;;;;;;;34.80;33.20;;;25.90;95.90;;;;;;5021539;28;20514;-53
2023/08/24 10:04:50;;;;;;;36.30;34.70;;;25.90;95.90;;;;;;5021233;28;20438;-53
2023/08/24 10:07:23;;;;;;;35.20;33.50;;;25.90;95.90;;;;;;5021412;28;20500;-54
2023/08/24 10:09:59;;;;;;;34.20;32.70;;;25.90;96.00;;;;;;5021285;28;20466;-55
2023/08/24 10:12:29;;;;;;;35.43;33.90;;;25.90;96.00;;;;;;5021762;28;20468;-55
2023/08/24 10:15:02;;;;;;;35.90;34.40;;;25.90;96.00;;;;;;5021161;28;20442;-55
2023/08/24 10:17:30;;;;;;;36.60;34.90;;;25.90;96.10;;;;;;5021486;28;20446;-53
2023/08/24 10:20:00;;;;;;;34.83;33.33;;;25.90;96.00;;;;;;5021347;28;20471;-54
2023/08/24 10:22:29;;;;;;;36.70;35.10;;;25.90;95.90;;;;;;5017493;28;20521;-52
2023/08/24 10:24:57;;;;;;;36.77;35.07;;;25.90;96.00;;;;;;5014240;28;20485;-52
2023/08/24 10:27:24;;;;;;;35.80;34.20;;;25.90;95.90;;;;;;5014280;28;20484;-50
2023/08/24 10:29:51;;;;;;;33.63;32.23;;;25.90;96.00;;;;;;5014285;28;20481;-51
2023/08/24 10:32:20;;;;;;;35.80;34.30;;;25.90;95.90;;;;;;5014302;28;20494;-49
2023/08/24 10:34:47;;;;;;;34.90;33.40;;;25.90;95.90;;;;;;5014019;28;20470;-49
2023/08/24 10:37:15;;;;;;;34.40;32.90;;;25.90;95.90;;;;;;5014347;28;20474;-51
2023/08/24 10:39:46;;;;;;;35.37;33.73;;;25.90;95.90;;;;;;5014107;28;20478;-50
2023/08/24 10:42:13;;;;;;;36.03;34.43;;;25.90;95.90;;;;;;5014138;28;20462;-50
2023/08/24 10:44:44;;;;;;;35.30;33.80;;;25.90;95.90;;;;;;5013801;28;20481;-52
2023/08/24 10:47:15;;;;;;;34.90;33.40;;;26.00;95.90;;;;;;5014085;28;20470;-51
2023/08/24 10:49:43;;;;;;;34.10;32.60;;;26.00;95.90;;;;;;5013759;28;20493;-52
2023/08/24 10:52:33;;;;;;;33.40;32.00;;;26.00;95.80;;;;;;5013820;28;20490;-51
2023/08/24 10:55:02;;;;;;;34.13;32.63;;;26.00;95.90;;;;;;5009566;28;20457;-50
2023/08/24 10:57:36;;;;;;;34.47;32.93;;;26.00;95.90;;;;;;5014037;28;20461;-50
2023/08/24 11:00:08;;;;;;;33.87;32.27;;;26.00;95.90;;;;;;5013891;28;20469;-49
2023/08/24 11:02:46;;;;;;;33.90;32.20;;;26.00;95.90;;;;;;5013707;28;20572;-49
2023/08/24 11:05:18;;;;;;;35.63;34.20;;;26.00;95.90;;;;;;5013904;28;20478;-49
2023/08/24 11:07:57;;;;;;;35.30;33.70;;;26.00;95.90;;;;;;5013938;28;20485;-49
2023/08/24 11:10:25;;;;;;;36.97;35.27;;;26.00;95.90;;;;;;5013875;28;20469;-51
2023/08/24 11:13:13;;;;;;;35.00;33.50;;;26.10;96.00;;;;;;5013554;28;20894;-49
2023/08/24 11:15:41;;;;;;;35.60;34.00;;;26.00;95.90;;;;;;5013571;28;20525;-49
2023/08/24 11:18:23;;;;;;;38.20;36.50;;;26.00;95.90;;;;;;5013583;28;20531;-48
2023/08/24 11:20:51;;;;;;;35.50;33.90;;;26.10;96.00;;;;;;5013171;28;20452;-49
2023/08/24 11:23:21;;;;;;;37.17;35.57;;;26.10;96.00;;;;;;5013566;28;20524;-48
2023/08/24 11:25:49;;;;;;;35.73;34.23;;;26.10;96.00;;;;;;5013706;28;20466;-48
2023/08/24 11:28:20;;;;;;;35.60;34.10;;;26.10;96.00;;;;;;5013439;28;20481;-49
2023/08/24 11:30:48;;;;;;;35.20;33.60;;;26.10;96.00;;;;;;5013400;28;20446;-51
2023/08/24 11:33:15;;;;;;;32.40;31.00;;;26.10;96.00;;;;;;5013081;28;21151;-49
2023/08/24 11:35:44;;;;;;;36.37;34.87;;;26.10;96.00;;;;;;5013469;28;20446;-48
2023/08/24 11:38:11;;;;;;;34.87;33.37;;;26.10;96.00;;;;;;5013255;28;20446;-49
2023/08/24 11:40:40;;;;;;;35.37;33.67;;;26.10;96.00;;;;;;5013111;28;20473;-48
2023/08/24 11:43:06;;;;;;;35.70;34.17;;;26.10;96.00;;;;;;5013091;28;20524;-49
2023/08/24 11:45:36;;;;;;;34.43;32.83;;;26.10;96.00;;;;;;5012945;28;20485;-49
2023/08/24 11:48:04;;;;;;;34.70;33.20;;;26.10;96.00;;;;;;5013066;28;20477;-49
2023/08/24 11:50:32;;;;;;;33.40;31.90;;;26.10;96.00;;;;;;5012512;28;20442;-49
2023/08/24 11:52:59;;;;;;;35.40;33.60;;;26.20;96.00;;;;;;5012721;28;20458;-49
2023/08/24 11:55:26;;;;;;;35.90;34.30;;;26.10;95.90;;;;;;5013029;28;20537;-48
2023/08/24 11:57:55;;;;;;;35.53;33.93;;;26.20;96.00;;;;;;5012941;28;20481;-49
2023/08/24 12:00:23;;;;;;;34.20;32.70;;;26.10;96.00;;;;;;5013245;28;20492;-49
2023/08/24 12:02:51;;;;;;;36.10;34.30;;;26.20;96.00;;;;;;5012790;28;20572;-49
2023/08/24 12:05:22;;;;;;;34.70;33.10;;;26.20;96.00;;;;;;5012784;28;20470;-49
2023/08/24 12:07:50;;;;;;;33.30;31.80;;;26.20;96.00;;;;;;5012593;28;20450;-49
2023/08/24 12:10:17;;;;;;;33.93;32.43;;;26.20;96.00;;;;;;5012554;28;20481;-50
2023/08/24 12:12:43;;;;;;;36.23;34.50;;;26.20;96.00;;;;;;5012767;28;20990;-48
2023/08/24 12:15:19;;;;;;;34.33;32.83;;;26.20;96.00;;;;;;5012841;28;20466;-49
2023/08/24 12:17:47;;;;;;;34.67;33.00;;;26.20;96.00;;;;;;5012885;28;20926;-49
2023/08/24 12:20:22;;;;;;;34.03;32.43;;;26.20;96.00;;;;;;5012640;28;20478;-51
2023/08/24 12:22:53;;;;;;;34.60;33.10;;;26.20;96.00;;;;;;5012072;28;20477;-49
2023/08/24 12:25:23;;;;;;;34.23;32.63;;;26.20;96.00;;;;;;5012047;28;21008;-49
2023/08/24 12:27:51;;;;;;;37.30;35.60;;;26.30;96.10;;;;;;5012108;28;20461;-48
2023/08/24 12:30:20;;;;;;;35.40;33.80;;;26.30;96.20;;;;;;5012002;28;20478;-48
2023/08/24 12:32:50;;;;;;;36.10;34.50;;;26.20;96.20;;;;;;5011912;28;20466;-49